createdAt,value
2019-01-05T00:00:17.065Z,0
2019-01-05T00:01:25.115Z,0
2019-01-05T00:02:33.179Z,0
2019-01-05T00:03:41.213Z,0
2019-01-05T00:04:49.266Z,0
2019-01-05T00:05:57.330Z,0
2019-01-05T00:07:05.374Z,0
2019-01-05T00:08:13.454Z,0
2019-01-05T00:09:21.479Z,0
2019-01-05T00:10:29.532Z,0
2019-01-05T00:11:37.626Z,0
2019-01-05T00:12:45.654Z,0
2019-01-05T00:13:53.727Z,0
2019-01-05T00:15:01.760Z,0
2019-01-05T00:16:09.846Z,0
2019-01-05T00:17:17.889Z,0
2019-01-05T00:18:25.943Z,0
2019-01-05T00:19:34.009Z,0
2019-01-05T00:20:42.090Z,0
2019-01-05T00:21:50.127Z,0
2019-01-05T00:22:58.169Z,0
2019-01-05T00:24:06.231Z,0
2019-01-05T00:25:14.301Z,0
2019-01-05T00:26:22.323Z,0
2019-01-05T00:27:30.391Z,0
2019-01-05T00:28:38.450Z,0
2019-01-05T00:29:46.507Z,0
2019-01-05T00:30:54.549Z,0
2019-01-05T00:32:02.623Z,0
2019-01-05T00:33:10.644Z,0
2019-01-05T00:34:18.739Z,0
2019-01-05T00:35:26.784Z,0
2019-01-05T00:36:34.831Z,0
2019-01-05T00:37:42.887Z,0
2019-01-05T00:38:50.923Z,0
2019-01-05T00:39:59.011Z,0
2019-01-05T00:41:07.051Z,0
2019-01-05T00:42:15.117Z,0
2019-01-05T00:43:23.181Z,0
2019-01-05T00:44:31.200Z,0
2019-01-05T00:45:39.286Z,0
2019-01-05T00:46:47.352Z,0
2019-01-05T00:47:56.306Z,0
2019-01-05T00:49:03.452Z,0
2019-01-05T00:50:11.490Z,0
2019-01-05T00:51:19.559Z,0
2019-01-05T00:52:27.623Z,0
2019-01-05T00:53:35.668Z,0
2019-01-05T00:54:43.726Z,0
2019-01-05T00:55:51.791Z,0
2019-01-05T00:56:59.840Z,0
2019-01-05T00:58:07.896Z,0
2019-01-05T00:59:15.947Z,0
2019-01-05T01:00:24.004Z,0
2019-01-05T01:01:32.065Z,0
2019-01-05T01:02:40.123Z,0
2019-01-05T01:03:48.170Z,0
2019-01-05T01:04:56.235Z,0
2019-01-05T01:06:04.290Z,0
2019-01-05T01:07:12.339Z,0
2019-01-05T01:08:20.404Z,0
2019-01-05T01:09:28.445Z,0
2019-01-05T01:10:36.526Z,0
2019-01-05T01:11:44.560Z,0
2019-01-05T01:12:52.617Z,0
2019-01-05T01:14:00.662Z,0
2019-01-05T01:15:08.745Z,0
2019-01-05T01:16:16.798Z,0
2019-01-05T01:17:24.847Z,0
2019-01-05T01:18:33.008Z,0
2019-01-05T01:19:40.954Z,0
2019-01-05T01:20:49.010Z,0
2019-01-05T01:21:57.062Z,0
2019-01-05T01:23:05.115Z,0
2019-01-05T01:24:13.189Z,0
2019-01-05T01:25:21.208Z,0
2019-01-05T01:26:29.295Z,0
2019-01-05T01:27:37.361Z,0
2019-01-05T01:28:45.412Z,0
2019-01-05T01:29:53.457Z,0
2019-01-05T01:31:01.502Z,0
2019-01-05T01:32:09.568Z,0
2019-01-05T01:33:17.640Z,0
2019-01-05T01:34:25.682Z,0
2019-01-05T01:35:33.738Z,0
2019-01-05T01:36:41.793Z,0
2019-01-05T01:37:49.859Z,0
2019-01-05T01:38:57.890Z,0
2019-01-05T01:40:05.955Z,0
2019-01-05T01:41:14.023Z,0
2019-01-05T01:42:22.070Z,0
2019-01-05T01:43:30.137Z,0
2019-01-05T01:44:38.211Z,0
2019-01-05T01:45:46.253Z,0
2019-01-05T01:46:54.308Z,0
2019-01-05T01:48:02.352Z,0
2019-01-05T01:49:10.399Z,0
2019-01-05T01:50:18.458Z,0
2019-01-05T01:51:26.536Z,0
2019-01-05T01:52:34.579Z,0
2019-01-05T01:53:42.625Z,0
2019-01-05T01:54:50.658Z,0
2019-01-05T01:55:58.752Z,0
2019-01-05T01:57:06.788Z,0
2019-01-05T01:58:14.853Z,0
2019-01-05T01:59:22.910Z,0
2019-01-05T02:00:30.946Z,0
2019-01-05T02:01:39.030Z,0
2019-01-05T02:02:47.080Z,0
2019-01-05T02:03:55.127Z,0
2019-01-05T02:05:03.193Z,0
2019-01-05T02:06:11.223Z,0
2019-01-05T02:07:19.320Z,0
2019-01-05T02:08:27.361Z,0
2019-01-05T02:09:35.423Z,0
2019-01-05T02:10:43.468Z,0
2019-01-05T02:11:51.500Z,0
2019-01-05T02:12:59.568Z,0
2019-01-05T02:14:07.639Z,0
2019-01-05T02:15:15.690Z,0
2019-01-05T02:16:23.789Z,0
2019-01-05T02:17:31.807Z,0
2019-01-05T02:18:39.870Z,0
2019-01-05T02:19:47.912Z,0
2019-01-05T02:20:55.972Z,0
2019-01-05T02:22:04.038Z,0
2019-01-05T02:23:12.134Z,0
2019-01-05T02:24:20.148Z,0
2019-01-05T02:25:28.189Z,0
2019-01-05T02:26:36.259Z,0
2019-01-05T02:27:44.309Z,0
2019-01-05T02:28:52.367Z,0
2019-01-05T02:30:00.444Z,0
2019-01-05T02:31:08.481Z,0
2019-01-05T02:32:16.543Z,0
2019-01-05T02:33:24.588Z,0
2019-01-05T02:34:32.659Z,0
2019-01-05T02:35:40.672Z,0
2019-01-05T02:36:48.763Z,0
2019-01-05T02:37:56.814Z,0
2019-01-05T02:39:04.868Z,0
2019-01-05T02:40:12.917Z,0
2019-01-05T02:41:20.962Z,0
2019-01-05T02:42:29.171Z,0
2019-01-05T02:43:37.086Z,0
2019-01-05T02:44:45.138Z,0
2019-01-05T02:45:53.233Z,0
2019-01-05T02:47:01.233Z,0
2019-01-05T02:48:09.316Z,0
2019-01-05T02:49:17.371Z,0
2019-01-05T02:50:25.438Z,0
2019-01-05T02:51:33.472Z,0
2019-01-05T02:52:41.541Z,0
2019-01-05T02:53:49.586Z,0
2019-01-05T02:54:57.652Z,0
2019-01-05T02:56:05.694Z,0
2019-01-05T02:57:13.754Z,0
2019-01-05T02:58:21.818Z,0
2019-01-05T02:59:29.874Z,0
2019-01-05T03:00:37.929Z,0
2019-01-05T03:01:45.974Z,0
2019-01-05T03:02:54.050Z,0
2019-01-05T03:04:02.101Z,0
2019-01-05T03:05:10.157Z,0
2019-01-05T03:06:18.212Z,0
2019-01-05T03:07:26.268Z,0
2019-01-05T03:08:34.329Z,0
2019-01-05T03:09:42.377Z,0
2019-01-05T03:10:50.420Z,0
2019-01-05T03:11:58.479Z,0
2019-01-05T03:13:06.560Z,0
2019-01-05T03:14:14.590Z,0
2019-01-05T03:15:22.654Z,0
2019-01-05T03:16:30.683Z,0
2019-01-05T03:17:38.778Z,0
2019-01-05T03:18:46.818Z,0
2019-01-05T03:19:54.889Z,0
2019-01-05T03:21:02.938Z,0
2019-01-05T03:22:10.968Z,0
2019-01-05T03:23:19.046Z,0
2019-01-05T03:24:27.094Z,0
2019-01-05T03:25:35.163Z,0
2019-01-05T03:26:43.212Z,0
2019-01-05T03:27:51.253Z,0
2019-01-05T03:28:59.330Z,0
2019-01-05T03:30:07.376Z,0
2019-01-05T03:31:15.468Z,0
2019-01-05T03:32:23.506Z,0
2019-01-05T03:33:31.546Z,0
2019-01-05T03:34:39.595Z,0
2019-01-05T03:35:47.663Z,0
2019-01-05T03:36:55.729Z,0
2019-01-05T03:38:03.769Z,0
2019-01-05T03:39:11.830Z,0
2019-01-05T03:40:19.901Z,0
2019-01-05T03:41:27.933Z,0
2019-01-05T03:42:35.989Z,0
2019-01-05T03:43:44.103Z,0
2019-01-05T03:44:52.127Z,0
2019-01-05T03:46:00.173Z,0
2019-01-05T03:47:08.226Z,0
2019-01-05T03:48:16.275Z,0
2019-01-05T03:49:24.338Z,0
2019-01-05T03:50:32.384Z,0
2019-01-05T03:51:40.442Z,0
2019-01-05T03:52:48.489Z,0
2019-01-05T03:53:56.577Z,0
2019-01-05T03:55:04.605Z,0
2019-01-05T03:56:12.671Z,0
2019-01-05T03:57:20.691Z,0
2019-01-05T03:58:28.782Z,0
2019-01-05T03:59:36.837Z,0
2019-01-05T04:00:44.884Z,0
2019-01-05T04:01:52.943Z,0
2019-01-05T04:03:00.975Z,0
2019-01-05T04:04:09.056Z,0
2019-01-05T04:05:17.118Z,0
2019-01-05T04:06:25.172Z,0
2019-01-05T04:07:33.229Z,0
2019-01-05T04:08:41.254Z,0
2019-01-05T04:09:49.331Z,0
2019-01-05T04:10:57.398Z,0
2019-01-05T04:12:05.450Z,0
2019-01-05T04:13:13.506Z,0
2019-01-05T04:14:21.553Z,0
2019-01-05T04:15:29.618Z,0
2019-01-05T04:16:37.673Z,0
2019-01-05T04:17:45.731Z,0
2019-01-05T04:18:54.119Z,0
2019-01-05T04:20:01.835Z,0
2019-01-05T04:21:09.899Z,0
2019-01-05T04:22:17.963Z,0
2019-01-05T04:23:26.007Z,0
2019-01-05T04:24:34.056Z,0
2019-01-05T04:25:42.125Z,0
2019-01-05T04:26:50.178Z,0
2019-01-05T04:27:58.236Z,0
2019-01-05T04:29:06.835Z,0
2019-01-05T04:30:14.339Z,0
2019-01-05T04:31:22.393Z,0
2019-01-05T04:32:30.447Z,0
2019-01-05T04:33:38.515Z,0
2019-01-05T04:34:46.569Z,0
2019-01-05T04:35:54.621Z,0
2019-01-05T04:37:02.675Z,0
2019-01-05T04:38:10.706Z,0
2019-01-05T04:39:18.807Z,0
2019-01-05T04:40:26.841Z,0
2019-01-05T04:41:34.901Z,0
2019-01-05T04:42:42.962Z,0
2019-01-05T04:43:50.997Z,0
2019-01-05T04:44:59.066Z,0
2019-01-05T04:46:07.122Z,0
2019-01-05T04:47:15.171Z,0
2019-01-05T04:48:23.239Z,0
2019-01-05T04:49:31.267Z,0
2019-01-05T04:50:39.339Z,0
2019-01-05T04:51:47.389Z,0
2019-01-05T04:52:55.496Z,0
2019-01-05T04:54:03.509Z,0
2019-01-05T04:55:11.557Z,0
2019-01-05T04:56:19.620Z,0
2019-01-05T04:57:27.670Z,0
2019-01-05T04:58:35.738Z,0
2019-01-05T04:59:43.798Z,0
2019-01-05T05:00:51.836Z,0
2019-01-05T05:01:59.904Z,0
2019-01-05T05:03:07.954Z,0
2019-01-05T05:04:16.016Z,0
2019-01-05T05:05:24.072Z,0
2019-01-05T05:06:32.123Z,0
2019-01-05T05:07:40.186Z,0
2019-01-05T05:08:48.255Z,0
2019-01-05T05:09:56.302Z,0
2019-01-05T05:11:04.358Z,0
2019-01-05T05:12:12.407Z,0
2019-01-05T05:13:20.454Z,0
2019-01-05T05:14:28.527Z,0
2019-01-05T05:15:36.640Z,0
2019-01-05T05:16:44.625Z,0
2019-01-05T05:17:52.678Z,0
2019-01-05T05:19:00.711Z,0
2019-01-05T05:20:08.794Z,0
2019-01-05T05:21:16.847Z,0
2019-01-05T05:22:24.908Z,0
2019-01-05T05:23:32.952Z,0
2019-01-05T05:24:41.011Z,0
2019-01-05T05:25:49.074Z,0
2019-01-05T05:26:57.144Z,0
2019-01-05T05:28:05.184Z,0
2019-01-05T05:29:13.247Z,0
2019-01-05T05:30:21.277Z,0
2019-01-05T05:31:29.354Z,0
2019-01-05T05:32:37.402Z,0
2019-01-05T05:33:45.470Z,0
2019-01-05T05:34:53.533Z,0
2019-01-05T05:36:01.586Z,0
2019-01-05T05:37:09.637Z,0
2019-01-05T05:38:17.685Z,0
2019-01-05T05:39:25.739Z,0
2019-01-05T05:40:33.812Z,0
2019-01-05T05:41:41.866Z,0
2019-01-05T05:42:49.918Z,0
2019-01-05T05:43:57.979Z,0
2019-01-05T05:45:06.026Z,0
2019-01-05T05:46:14.085Z,0
2019-01-05T05:47:22.148Z,0
2019-01-05T05:48:30.192Z,0
2019-01-05T05:49:38.259Z,0
2019-01-05T05:50:46.308Z,0
2019-01-05T05:51:54.362Z,0
2019-01-05T05:53:02.410Z,0
2019-01-05T05:54:10.453Z,0
2019-01-05T05:55:18.532Z,0
2019-01-05T05:56:26.580Z,0
2019-01-05T05:57:34.641Z,0
2019-01-05T05:58:42.684Z,0
2019-01-05T05:59:50.727Z,0
2019-01-05T06:00:58.818Z,0
2019-01-05T06:02:06.870Z,0
2019-01-05T06:03:14.926Z,0
2019-01-05T06:04:22.971Z,0
2019-01-05T06:05:31.025Z,0
2019-01-05T06:06:39.087Z,0
2019-01-05T06:07:47.151Z,0
2019-01-05T06:08:55.192Z,0
2019-01-05T06:10:03.271Z,0
2019-01-05T06:11:11.289Z,0
2019-01-05T06:12:19.369Z,0
2019-01-05T06:13:27.463Z,0
2019-01-05T06:14:35.488Z,0
2019-01-05T06:15:43.535Z,0
2019-01-05T06:16:51.589Z,0
2019-01-05T06:17:59.647Z,0
2019-01-05T06:19:07.703Z,0
2019-01-05T06:20:15.757Z,0
2019-01-05T06:21:23.803Z,0
2019-01-05T06:22:31.873Z,0
2019-01-05T06:23:39.917Z,0
2019-01-05T06:24:47.982Z,0
2019-01-05T06:25:56.034Z,0
2019-01-05T06:27:04.099Z,0
2019-01-05T06:28:12.155Z,0
2019-01-05T06:29:20.202Z,0
2019-01-05T06:30:28.258Z,0
2019-01-05T06:31:36.301Z,0
2019-01-05T06:32:44.372Z,0
2019-01-05T06:33:52.436Z,0
2019-01-05T06:35:00.464Z,0
2019-01-05T06:36:08.621Z,0
2019-01-05T06:37:16.615Z,0
2019-01-05T06:38:24.631Z,0
2019-01-05T06:39:32.949Z,0
2019-01-05T06:40:41.010Z,0
2019-01-05T06:41:48.824Z,0
2019-01-05T06:42:56.871Z,0
2019-01-05T06:44:04.930Z,0
2019-01-05T06:45:13.321Z,0
2019-01-05T06:46:21.022Z,0
2019-01-05T06:47:29.098Z,0
2019-01-05T06:48:37.162Z,0
2019-01-05T06:49:45.191Z,0
2019-01-05T06:50:53.296Z,0
2019-01-05T06:52:02.487Z,0
2019-01-05T06:53:09.381Z,0
2019-01-05T06:54:17.429Z,0
2019-01-05T06:55:25.503Z,0
2019-01-05T06:56:33.543Z,0
2019-01-05T06:57:41.930Z,0
2019-01-05T06:58:49.649Z,0
2019-01-05T06:59:58.510Z,0
2019-01-05T07:01:05.769Z,0
2019-01-05T07:02:13.820Z,0
2019-01-05T07:03:21.879Z,0
2019-01-05T07:04:29.998Z,0
2019-01-05T07:05:37.994Z,0
2019-01-05T07:06:46.047Z,0
2019-01-05T07:07:54.109Z,0
2019-01-05T07:09:02.333Z,0
2019-01-05T07:10:10.226Z,0
2019-01-05T07:11:19.163Z,0
2019-01-05T07:12:26.318Z,0
2019-01-05T07:13:34.402Z,0
2019-01-05T07:14:42.448Z,5
2019-01-05T07:15:50.480Z,5
2019-01-05T07:16:58.544Z,5
2019-01-05T07:18:06.841Z,5
2019-01-05T07:19:14.664Z,5
2019-01-05T07:20:22.785Z,5
2019-01-05T07:21:30.741Z,5
2019-01-05T07:22:38.837Z,5
2019-01-05T07:23:46.888Z,5
2019-01-05T07:24:54.933Z,5
2019-01-05T07:26:03.000Z,5
2019-01-05T07:27:11.031Z,5
2019-01-05T07:28:19.113Z,5
2019-01-05T07:29:27.167Z,5
2019-01-05T07:30:35.227Z,10
2019-01-05T07:31:43.281Z,10
2019-01-05T07:32:51.302Z,10
2019-01-05T07:33:59.382Z,10
2019-01-05T07:35:07.453Z,10
2019-01-05T07:36:15.511Z,10
2019-01-05T07:37:23.556Z,10
2019-01-05T07:38:31.605Z,15
2019-01-05T07:39:39.668Z,15
2019-01-05T07:40:47.738Z,15
2019-01-05T07:41:55.766Z,15
2019-01-05T07:43:04.413Z,15
2019-01-05T07:44:11.883Z,15
2019-01-05T07:45:19.951Z,20
2019-01-05T07:46:28.011Z,20
2019-01-05T07:47:36.577Z,20
2019-01-05T07:48:44.119Z,20
2019-01-05T07:49:52.198Z,25
2019-01-05T07:51:00.219Z,20
2019-01-05T07:52:08.280Z,25
2019-01-05T07:53:16.337Z,25
2019-01-05T07:54:24.388Z,25
2019-01-05T07:55:32.450Z,25
2019-01-05T07:56:40.477Z,25
2019-01-05T07:57:48.922Z,20
2019-01-05T07:58:56.621Z,20
2019-01-05T08:00:04.673Z,20
2019-01-05T08:01:12.737Z,20
2019-01-05T08:02:20.759Z,20
2019-01-05T08:03:28.877Z,20
2019-01-05T08:04:36.883Z,20
2019-01-05T08:05:44.931Z,20
2019-01-05T08:06:52.999Z,25
2019-01-05T08:08:01.033Z,25
2019-01-05T08:09:09.123Z,30
2019-01-05T08:10:17.182Z,30
2019-01-05T08:11:25.229Z,25
2019-01-05T08:12:33.304Z,25
2019-01-05T08:13:41.310Z,25
2019-01-05T08:14:49.395Z,25
2019-01-05T08:15:57.456Z,25
2019-01-05T08:17:05.512Z,30
2019-01-05T08:18:13.565Z,30
2019-01-05T08:19:21.626Z,30
2019-01-05T08:20:29.666Z,30
2019-01-05T08:21:37.731Z,35
2019-01-05T08:22:45.781Z,40
2019-01-05T08:23:53.847Z,45
2019-01-05T08:25:01.903Z,55
2019-01-05T08:26:10.007Z,60
2019-01-05T08:27:18.015Z,60
2019-01-05T08:28:26.064Z,60
2019-01-05T08:29:34.138Z,65
2019-01-05T08:30:42.206Z,70
2019-01-05T08:31:50.276Z,65
2019-01-05T08:32:58.300Z,60
2019-01-05T08:34:06.338Z,55
2019-01-05T08:35:14.422Z,50
2019-01-05T08:36:22.459Z,50
2019-01-05T08:37:30.507Z,45
2019-01-05T08:38:38.608Z,45
2019-01-05T08:39:46.635Z,45
2019-01-05T08:40:54.946Z,50
2019-01-05T08:42:02.742Z,50
2019-01-05T08:43:10.803Z,50
2019-01-05T08:44:18.878Z,55
2019-01-05T08:45:27.318Z,60
2019-01-05T08:46:35.378Z,60
2019-01-05T08:47:43.031Z,65
2019-01-05T08:48:51.439Z,70
2019-01-05T08:49:59.154Z,65
2019-01-05T08:51:07.176Z,60
2019-01-05T08:52:15.261Z,55
2019-01-05T08:53:23.349Z,55
2019-01-05T08:54:31.334Z,55
2019-01-05T08:55:39.421Z,55
2019-01-05T08:56:47.469Z,60
2019-01-05T08:57:56.192Z,65
2019-01-05T08:59:04.122Z,70
2019-01-05T09:00:11.886Z,70
2019-01-05T09:01:19.818Z,75
2019-01-05T09:02:27.795Z,80
2019-01-05T09:03:35.913Z,80
2019-01-05T09:04:43.859Z,80
2019-01-05T09:05:51.928Z,75
2019-01-05T09:07:00.289Z,75
2019-01-05T09:08:08.040Z,75
2019-01-05T09:09:16.096Z,80
2019-01-05T09:10:24.128Z,80
2019-01-05T09:11:32.339Z,85
2019-01-05T09:12:40.260Z,85
2019-01-05T09:13:48.416Z,90
2019-01-05T09:14:56.607Z,90
2019-01-05T09:16:04.421Z,95
2019-01-05T09:17:12.486Z,95
2019-01-05T09:18:20.532Z,90
2019-01-05T09:19:30.827Z,95
2019-01-05T09:20:36.665Z,100
2019-01-05T09:21:44.693Z,100
2019-01-05T09:22:52.756Z,100
2019-01-05T09:24:01.117Z,105
2019-01-05T09:25:08.982Z,105
2019-01-05T09:26:16.926Z,105
2019-01-05T09:27:24.980Z,95
2019-01-05T09:28:33.035Z,90
2019-01-05T09:29:41.106Z,90
2019-01-05T09:30:49.168Z,95
2019-01-05T09:31:57.214Z,100
2019-01-05T09:33:05.278Z,105
2019-01-05T09:34:13.333Z,100
2019-01-05T09:35:21.362Z,105
2019-01-05T09:36:29.433Z,95
2019-01-05T09:37:37.504Z,95
2019-01-05T09:38:45.568Z,105
2019-01-05T09:39:53.991Z,105
2019-01-05T09:41:01.657Z,105
2019-01-05T09:42:09.731Z,105
2019-01-05T09:43:18.757Z,125
2019-01-05T09:44:25.830Z,135
2019-01-05T09:45:34.601Z,130
2019-01-05T09:46:41.942Z,125
2019-01-05T09:47:50.024Z,130
2019-01-05T09:48:58.042Z,130
2019-01-05T09:50:06.110Z,120
2019-01-05T09:51:14.167Z,115
2019-01-05T09:52:22.239Z,115
2019-01-05T09:53:30.288Z,120
2019-01-05T09:54:38.324Z,105
2019-01-05T09:55:46.414Z,95
2019-01-05T09:56:54.457Z,90
2019-01-05T09:58:02.503Z,85
2019-01-05T09:59:10.541Z,85
2019-01-05T10:00:18.620Z,90
2019-01-05T10:01:26.694Z,90
2019-01-05T10:02:34.717Z,95
2019-01-05T10:03:42.788Z,105
2019-01-05T10:04:50.834Z,105
2019-01-05T10:05:58.895Z,105
2019-01-05T10:07:06.958Z,105
2019-01-05T10:08:15.016Z,110
2019-01-05T10:09:23.064Z,110
2019-01-05T10:10:31.117Z,110
2019-01-05T10:11:39.393Z,105
2019-01-05T10:12:47.254Z,110
2019-01-05T10:13:55.352Z,105
2019-01-05T10:15:03.360Z,105
2019-01-05T10:16:11.420Z,115
2019-01-05T10:17:19.475Z,125
2019-01-05T10:18:27.522Z,125
2019-01-05T10:19:35.583Z,130
2019-01-05T10:20:43.641Z,130
2019-01-05T10:21:51.679Z,125
2019-01-05T10:22:59.772Z,130
2019-01-05T10:24:07.812Z,135
2019-01-05T10:25:15.867Z,140
2019-01-05T10:26:23.922Z,140
2019-01-05T10:27:32.018Z,155
2019-01-05T10:28:40.037Z,165
2019-01-05T10:29:48.097Z,160
2019-01-05T10:30:56.150Z,155
2019-01-05T10:32:04.199Z,145
2019-01-05T10:33:12.269Z,130
2019-01-05T10:34:20.314Z,120
2019-01-05T10:35:28.367Z,120
2019-01-05T10:36:36.442Z,110
2019-01-05T10:37:44.481Z,110
2019-01-05T10:38:52.572Z,110
2019-01-05T10:40:00.601Z,105
2019-01-05T10:41:08.654Z,110
2019-01-05T10:42:16.713Z,120
2019-01-05T10:43:24.773Z,125
2019-01-05T10:44:32.840Z,125
2019-01-05T10:45:40.869Z,135
2019-01-05T10:46:48.955Z,135
2019-01-05T10:47:57.003Z,140
2019-01-05T10:49:05.044Z,135
2019-01-05T10:50:13.101Z,135
2019-01-05T10:51:21.353Z,140
2019-01-05T10:52:29.216Z,150
2019-01-05T10:53:37.277Z,160
2019-01-05T10:54:45.331Z,160
2019-01-05T10:55:53.391Z,170
2019-01-05T10:57:01.429Z,170
2019-01-05T10:58:09.581Z,160
2019-01-05T10:59:17.564Z,150
2019-01-05T11:00:25.617Z,145
2019-01-05T11:01:33.716Z,145
2019-01-05T11:02:41.734Z,145
2019-01-05T11:03:49.805Z,150
2019-01-05T11:04:57.864Z,155
2019-01-05T11:06:05.899Z,165
2019-01-05T11:07:13.953Z,175
2019-01-05T11:08:22.450Z,190
2019-01-05T11:09:30.079Z,205
2019-01-05T11:10:38.130Z,230
2019-01-05T11:11:46.204Z,245
2019-01-05T11:12:54.244Z,245
2019-01-05T11:14:02.312Z,235
2019-01-05T11:15:10.356Z,225
2019-01-05T11:16:18.431Z,210
2019-01-05T11:17:26.476Z,200
2019-01-05T11:18:34.545Z,195
2019-01-05T11:19:42.597Z,190
2019-01-05T11:20:50.617Z,190
2019-01-05T11:21:58.690Z,175
2019-01-05T11:23:06.807Z,175
2019-01-05T11:24:16.997Z,165
2019-01-05T11:25:22.953Z,165
2019-01-05T11:26:30.895Z,170
2019-01-05T11:27:38.994Z,170
2019-01-05T11:28:47.037Z,180
2019-01-05T11:29:55.093Z,180
2019-01-05T11:31:03.150Z,185
2019-01-05T11:32:11.304Z,180
2019-01-05T11:33:19.300Z,185
2019-01-05T11:34:27.311Z,180
2019-01-05T11:35:35.392Z,175
2019-01-05T11:36:43.458Z,175
2019-01-05T11:37:51.478Z,175
2019-01-05T11:38:59.554Z,160
2019-01-05T11:40:07.613Z,150
2019-01-05T11:41:15.703Z,145
2019-01-05T11:42:23.709Z,145
2019-01-05T11:43:31.776Z,150
2019-01-05T11:44:39.822Z,150
2019-01-05T11:45:47.926Z,145
2019-01-05T11:46:56.169Z,135
2019-01-05T11:48:04.007Z,135
2019-01-05T11:49:12.060Z,130
2019-01-05T11:50:20.135Z,125
2019-01-05T11:51:28.167Z,130
2019-01-05T11:52:36.243Z,140
2019-01-05T11:53:44.286Z,145
2019-01-05T11:54:52.360Z,155
2019-01-05T11:56:00.434Z,160
2019-01-05T11:57:08.490Z,170
2019-01-05T11:58:16.518Z,170
2019-01-05T11:59:24.573Z,170
2019-01-05T12:00:32.651Z,175
2019-01-05T12:01:40.659Z,170
2019-01-05T12:02:48.747Z,170
2019-01-05T12:03:56.812Z,170
2019-01-05T12:05:06.286Z,175
2019-01-05T12:06:12.922Z,175
2019-01-05T12:07:21.216Z,175
2019-01-05T12:08:29.007Z,175
2019-01-05T12:09:37.089Z,180
2019-01-05T12:10:45.134Z,185
2019-01-05T12:11:53.202Z,190
2019-01-05T12:13:01.229Z,190
2019-01-05T12:14:09.342Z,190
2019-01-05T12:15:17.365Z,190
2019-01-05T12:16:25.436Z,190
2019-01-05T12:17:33.641Z,185
2019-01-05T12:18:41.537Z,190
2019-01-05T12:19:49.614Z,185
2019-01-05T12:20:57.643Z,200
2019-01-05T12:22:05.725Z,205
2019-01-05T12:23:13.764Z,210
2019-01-05T12:24:21.825Z,210
2019-01-05T12:25:29.875Z,210
2019-01-05T12:26:37.975Z,210
2019-01-05T12:27:45.993Z,215
2019-01-05T12:28:54.052Z,215
2019-01-05T12:30:02.129Z,220
2019-01-05T12:31:10.180Z,220
2019-01-05T12:32:18.256Z,225
2019-01-05T12:33:26.294Z,235
2019-01-05T12:34:34.333Z,235
2019-01-05T12:35:42.455Z,230
2019-01-05T12:36:50.454Z,225
2019-01-05T12:37:58.573Z,220
2019-01-05T12:39:06.565Z,215
2019-01-05T12:40:14.636Z,205
2019-01-05T12:41:22.682Z,200
2019-01-05T12:42:30.710Z,195
2019-01-05T12:43:38.792Z,185
2019-01-05T12:44:46.860Z,170
2019-01-05T12:45:54.913Z,170
2019-01-05T12:47:02.971Z,165
2019-01-05T12:48:11.041Z,155
2019-01-05T12:49:19.102Z,160
2019-01-05T12:50:27.143Z,160
2019-01-05T12:51:35.253Z,160
2019-01-05T12:52:43.273Z,155
2019-01-05T12:53:51.725Z,150
2019-01-05T12:54:59.377Z,145
2019-01-05T12:56:07.432Z,145
2019-01-05T12:57:15.500Z,145
2019-01-05T12:58:23.556Z,140
2019-01-05T12:59:31.596Z,135
2019-01-05T13:00:39.666Z,130
2019-01-05T13:01:47.811Z,135
2019-01-05T13:02:55.782Z,145
2019-01-05T13:04:03.828Z,145
2019-01-05T13:05:11.882Z,150
2019-01-05T13:06:19.947Z,150
2019-01-05T13:07:28.027Z,150
2019-01-05T13:08:36.065Z,145
2019-01-05T13:09:44.127Z,150
2019-01-05T13:10:52.171Z,155
2019-01-05T13:12:00.253Z,150
2019-01-05T13:13:08.285Z,150
2019-01-05T13:14:16.346Z,150
2019-01-05T13:15:24.400Z,150
2019-01-05T13:16:32.470Z,140
2019-01-05T13:17:40.510Z,135
2019-01-05T13:18:48.582Z,130
2019-01-05T13:19:56.644Z,135
2019-01-05T13:21:04.736Z,140
2019-01-05T13:22:12.756Z,145
2019-01-05T13:23:20.778Z,160
2019-01-05T13:24:28.853Z,160
2019-01-05T13:25:36.921Z,155
2019-01-05T13:26:44.971Z,145
2019-01-05T13:27:53.020Z,145
2019-01-05T13:29:01.075Z,140
2019-01-05T13:30:09.177Z,145
2019-01-05T13:31:17.198Z,150
2019-01-05T13:32:25.265Z,145
2019-01-05T13:33:33.313Z,140
2019-01-05T13:34:41.368Z,140
2019-01-05T13:35:49.435Z,135
2019-01-05T13:36:57.494Z,140
2019-01-05T13:38:05.538Z,145
2019-01-05T13:39:13.608Z,160
2019-01-05T13:40:21.660Z,175
2019-01-05T13:41:29.711Z,175
2019-01-05T13:42:37.766Z,175
2019-01-05T13:43:45.841Z,170
2019-01-05T13:44:53.895Z,170
2019-01-05T13:46:01.990Z,165
2019-01-05T13:47:09.993Z,165
2019-01-05T13:48:18.067Z,170
2019-01-05T13:49:26.168Z,175
2019-01-05T13:50:34.169Z,175
2019-01-05T13:51:42.237Z,170
2019-01-05T13:52:50.307Z,155
2019-01-05T13:53:58.887Z,155
2019-01-05T13:55:06.396Z,160
2019-01-05T13:56:14.460Z,165
2019-01-05T13:57:22.633Z,170
2019-01-05T13:58:30.532Z,170
2019-01-05T13:59:38.615Z,170
2019-01-05T14:00:46.675Z,175
2019-01-05T14:01:54.750Z,180
2019-01-05T14:03:02.785Z,190
2019-01-05T14:04:10.860Z,190
2019-01-05T14:05:18.908Z,180
2019-01-05T14:06:26.981Z,170
2019-01-05T14:07:35.057Z,170
2019-01-05T14:08:43.083Z,170
2019-01-05T14:09:51.119Z,170
2019-01-05T14:10:59.226Z,160
2019-01-05T14:12:07.258Z,155
2019-01-05T14:13:15.313Z,150
2019-01-05T14:14:23.375Z,145
2019-01-05T14:15:31.418Z,150
2019-01-05T14:16:39.482Z,155
2019-01-05T14:17:47.545Z,150
2019-01-05T14:18:55.609Z,145
2019-01-05T14:20:03.667Z,140
2019-01-05T14:21:11.713Z,140
2019-01-05T14:22:19.789Z,130
2019-01-05T14:23:27.824Z,115
2019-01-05T14:24:35.892Z,110
2019-01-05T14:25:43.928Z,110
2019-01-05T14:26:51.993Z,110
2019-01-05T14:28:00.042Z,105
2019-01-05T14:29:08.113Z,100
2019-01-05T14:30:16.208Z,100
2019-01-05T14:31:24.224Z,100
2019-01-05T14:32:32.288Z,95
2019-01-05T14:33:40.339Z,90
2019-01-05T14:34:48.401Z,80
2019-01-05T14:35:56.448Z,80
2019-01-05T14:37:04.501Z,80
2019-01-05T14:38:12.584Z,75
2019-01-05T14:39:20.598Z,70
2019-01-05T14:40:28.673Z,70
2019-01-05T14:41:36.738Z,75
2019-01-05T14:42:44.793Z,75
2019-01-05T14:43:52.856Z,80
2019-01-05T14:45:00.877Z,80
2019-01-05T14:46:08.963Z,75
2019-01-05T14:47:17.021Z,70
2019-01-05T14:48:25.076Z,65
2019-01-05T14:49:33.139Z,65
2019-01-05T14:50:41.173Z,70
2019-01-05T14:51:49.264Z,65
2019-01-05T14:52:57.310Z,60
2019-01-05T14:54:05.353Z,60
2019-01-05T14:55:13.453Z,55
2019-01-05T14:56:21.499Z,60
2019-01-05T14:57:29.525Z,60
2019-01-05T14:58:37.592Z,65
2019-01-05T14:59:45.652Z,70
2019-01-05T15:00:53.712Z,70
2019-01-05T15:02:01.745Z,70
2019-01-05T15:03:09.801Z,70
2019-01-05T15:04:17.861Z,65
2019-01-05T15:05:25.929Z,65
2019-01-05T15:06:33.991Z,60
2019-01-05T15:07:42.079Z,60
2019-01-05T15:08:50.103Z,55
2019-01-05T15:09:58.166Z,55
2019-01-05T15:11:06.210Z,60
2019-01-05T15:12:14.264Z,50
2019-01-05T15:13:22.328Z,55
2019-01-05T15:14:30.384Z,45
2019-01-05T15:15:38.450Z,40
2019-01-05T15:16:46.499Z,40
2019-01-05T15:17:54.561Z,40
2019-01-05T15:19:02.625Z,40
2019-01-05T15:20:10.636Z,35
2019-01-05T15:21:18.714Z,30
2019-01-05T15:22:26.774Z,30
2019-01-05T15:23:34.845Z,25
2019-01-05T15:24:42.895Z,25
2019-01-05T15:25:50.919Z,20
2019-01-05T15:26:59.010Z,20
2019-01-05T15:28:07.077Z,20
2019-01-05T15:29:15.110Z,15
2019-01-05T15:30:23.175Z,15
2019-01-05T15:31:31.210Z,15
2019-01-05T15:32:39.292Z,15
2019-01-05T15:33:47.341Z,10
2019-01-05T15:34:55.399Z,10
2019-01-05T15:36:03.450Z,10
2019-01-05T15:37:11.515Z,10
2019-01-05T15:38:19.559Z,10
2019-01-05T15:39:27.976Z,10
2019-01-05T15:40:35.697Z,5
2019-01-05T15:41:43.768Z,5
2019-01-05T15:42:51.793Z,5
2019-01-05T15:43:59.846Z,5
2019-01-05T15:45:07.917Z,5
2019-01-05T15:46:15.972Z,5
2019-01-05T15:47:24.026Z,5
2019-01-05T15:48:32.082Z,5
2019-01-05T15:49:40.141Z,5
2019-01-05T15:50:48.218Z,0
2019-01-05T15:51:56.250Z,0
2019-01-05T15:53:04.304Z,0
2019-01-05T15:54:12.364Z,0
2019-01-05T15:55:20.422Z,0
2019-01-05T15:56:28.470Z,0
2019-01-05T15:57:36.534Z,0
2019-01-05T15:58:44.583Z,0
2019-01-05T15:59:52.654Z,0
2019-01-05T16:01:00.679Z,0
2019-01-05T16:02:08.742Z,0
2019-01-05T16:03:16.797Z,0
2019-01-05T16:04:27.286Z,0
2019-01-05T16:05:32.921Z,0
2019-01-05T16:06:40.955Z,0
2019-01-05T16:07:49.046Z,0
2019-01-05T16:08:57.117Z,0
2019-01-05T16:10:05.147Z,0
2019-01-05T16:11:13.209Z,0
2019-01-05T16:12:21.231Z,0
2019-01-05T16:13:29.315Z,0
2019-01-05T16:14:37.380Z,0
2019-01-05T16:15:45.433Z,0
2019-01-05T16:16:53.483Z,0